• Join FlightAware (Why Join?)
  • Login
  • US Flag 
09:45PM EST


 

Airport Tracker/Info


-or-


 

Live Flight TrackerFlight Track Log ✈ RPA3143 ✈ 24-Jul-2013 ✈ KDCA - KMCO

Flight Track Log - Related Links

Times and Time Zones

All times are in EDT time to prevent confusion due to time zone crossing. See the RPA3143 flight status page for this flight to view local times or setup timezone preferences in your user account.

Time Position Orientation Groundspeed Altitude Reporting Facility
EDT Latitude Longitude Course Direction KTS MPH feet Rate Location/Type
08:03AM 38.8833 -77.0500 233° Southwest 142 163 1,600  Level Potomac TRACON
08:04AM 38.9167 -77.1000 311° West 206 237 3,100 2,040 Climbing Potomac TRACON
08:05AM 38.9667 -77.1500 322° Northwest 239 275 5,700 2,520 Climbing Potomac TRACON
08:06AM 38.5525 -77.3642 218° Southwest  Level FlightAware Approximate
08:06AM 38.9667 -77.2167 270° West 271 312 7,900  Level Potomac TRACON
08:07AM 38.4789 -77.4534 225° Southwest  Level FlightAware Approximate
08:07AM 38.9000 -77.2667 210° Southwest 274 315 10,800  Level Potomac TRACON
08:08AM 38.4043 -77.5395 201° Southwest  Level FlightAware Approximate
08:08AM 38.8333 -77.3167 210° Southwest 311 358 12,600  Level Potomac TRACON
08:09AM 38.3353 -77.6301 233° Southwest  Level FlightAware Approximate
08:09AM 38.7500 -77.3500 197° South 329 379 14,700  Level Potomac TRACON
08:11AM 38.5833 -77.5067 216° Southwest 344 396 19,200 1,920 Climbing Washington Center
08:12AM 38.5111 -77.5897 222° Southwest 344 396 21,100 1,980 Climbing Washington Center
08:13AM 38.4325 -77.6803 222° Southwest 349 402 23,100 1,740 Climbing Washington Center
08:14AM 38.3581 -77.7628 221° Southwest 349 402 24,600 1,500 Climbing Washington Center
08:15AM 38.2833 -77.8506 223° Southwest 355 409 26,200 1,140 Climbing Washington Center
08:16AM 38.2044 -77.9381 221° Southwest 366 421 27,000 360 Climbing Washington Center
08:17AM 38.1278 -78.0256 222° Southwest 371 427 27,000  Level Washington Center
08:18AM 38.0508 -78.1128 222° Southwest 371 427 27,000  Level Washington Center
08:19AM 37.9825 -78.1894 221° Southwest 364 419 27,000 60 Level Washington Center
08:20AM 37.8908 -78.2758 217° Southwest 369 425 27,200 660 Climbing Washington Center
08:21AM 37.8056 -78.3569 217° Southwest 374 430 28,400 1,080 Climbing Washington Center
08:22AM 37.7203 -78.4378 217° Southwest 379 436 29,400 780 Climbing Washington Center
08:23AM 37.6328 -78.5158 215° Southwest 379 436 30,000 660 Climbing Washington Center
08:24AM 37.5517 -78.5964 218° Southwest 398 458 30,800 720 Climbing Washington Center
08:25AM 37.4597 -78.6792 216° Southwest 404 465 31,500 780 Climbing Washington Center
08:26AM 37.3678 -78.7669 217° Southwest 409 471 32,500 840 Climbing Washington Center
08:27AM 37.2717 -78.8517 215° Southwest 414 476 33,300 720 Climbing Washington Center
08:28AM 37.1711 -78.9464 217° Southwest 414 476 34,000 300 Climbing Washington Center
08:29AM 37.0789 -79.0308 216° Southwest 414 476 34,000  Level Washington Center
08:30AM 36.9867 -79.1178 217° Southwest 414 476 34,000  Level Washington Center
08:31AM 36.8986 -79.1994 217° Southwest 414 476 34,000  Level Washington Center
08:32AM 36.8086 -79.2808 216° Southwest 414 476 34,000  Level Washington Center
08:33AM 36.7292 -79.3547 217° Southwest 414 476 34,000  Level Washington Center
08:34AM 36.6281 -79.4483 217° Southwest 414 476 34,000  Level Washington Center
08:35AM 36.5486 -79.5194 216° Southwest 409 471 34,000  Level Washington Center
08:37AM 36.3850 -79.6650 216° Southwest 406 467 34,000  Level Atlanta Center
08:38AM 36.3042 -79.7414 217° Southwest 406 467 34,000  Level Atlanta Center
08:39AM 36.2111 -79.8236 215° Southwest 411 473 34,000  Level Atlanta Center
08:40AM 36.1200 -79.9056 216° Southwest 416 479 34,000  Level Atlanta Center
08:41AM 36.0267 -79.9822 214° Southwest 416 479 34,000  Level Atlanta Center
08:42AM 35.9097 -80.0417 202° Southwest 416 479 34,000  Level Atlanta Center
08:43AM 35.8031 -80.0983 203° Southwest 416 479 34,000  Level Atlanta Center
08:44AM 35.6942 -80.1494 201° Southwest 416 479 34,000  Level Atlanta Center
08:45AM 35.5853 -80.2058 203° Southwest 421 484 34,000  Level Atlanta Center
08:46AM 35.4767 -80.2619 203° Southwest 426 490 34,000  Level Atlanta Center
08:47AM 35.3800 -80.3122 203° Southwest 426 490 34,000  Level Atlanta Center
08:48AM 35.2692 -80.3681 202° Southwest 426 490 34,000  Level Atlanta Center
08:49AM 35.1600 -80.4211 202° Southwest 426 490 34,000  Level Atlanta Center
08:50AM 35.0489 -80.4742 201° Southwest 426 490 34,000  Level Atlanta Center
08:51AM 34.9419 -80.5294 203° Southwest 426 490 34,000  Level Atlanta Center
08:53AM 34.6908 -80.6581 203° Southwest 421 484 34,000  Level Jacksonville Center
08:54AM 34.5789 -80.7089 201° Southwest 427 491 34,000  Level Jacksonville Center
08:55AM 34.4628 -80.7419 193° South 437 503 34,000  Level Jacksonville Center
08:56AM 34.3422 -80.7675 190° South 432 497 34,000 -60 Level Jacksonville Center
08:57AM 34.2342 -80.7878 189° South 424 488 33,900  Descending Jacksonville Center
08:58AM 34.1156 -80.8158 191° South 419 482 34,000  Climbing Jacksonville Center
08:59AM 33.9992 -80.8361 188° South 429 494 34,000  Level Jacksonville Center
09:00AM 33.8806 -80.8614 190° South 429 494 34,000  Level Jacksonville Center
09:01AM 33.7642 -80.8814 188° South 429 494 34,000  Level Jacksonville Center
09:02AM 33.6456 -80.9092 191° South 429 494 34,000  Level Jacksonville Center
09:03AM 33.5269 -80.9342 190° South 434 499 34,000  Level Jacksonville Center
09:04AM 33.4083 -80.9567 189° South 434 499 34,000  Level Jacksonville Center
09:05AM 33.2919 -80.9792 189° South 429 494 34,000  Level Jacksonville Center
09:06AM 33.1711 -81.0017 189° South 429 494 34,000  Level Jacksonville Center
09:07AM 33.0525 -81.0264 190° South 429 494 34,000  Level Jacksonville Center
09:08AM 32.9339 -81.0486 189° South 429 494 34,000  Level Jacksonville Center
09:09AM 32.8236 -81.0706 189° South 441 507 34,000  Level Jacksonville Center
09:10AM 32.7028 -81.0953 190° South 446 513 34,000  Level Jacksonville Center
09:11AM 32.5736 -81.1200 189° South 439 505 34,000  Level Jacksonville Center
09:12AM 32.4633 -81.1272 183° South 446 513 34,000  Level Jacksonville Center
09:13AM 32.3358 -81.1272 180° South 457 526 34,000  Level Jacksonville Center
09:14AM 32.2128 -81.1247 179° South 457 526 34,000  Level Jacksonville Center
09:15AM 32.0917 -81.1269 181° South 457 526 34,000  Level Jacksonville Center
09:16AM 31.9683 -81.1244 179° South 451 519 34,000  Level Jacksonville Center
09:17AM 31.8347 -81.1222 179° South 441 507 34,000  Level Jacksonville Center
09:18AM 31.7283 -81.1242 181° South 436 502 34,000  Level Jacksonville Center
09:19AM 31.5947 -81.1219 179° South 436 502 34,000  Level Jacksonville Center
09:20AM 31.4881 -81.1214 180° South 436 502 34,000  Level Jacksonville Center
09:21AM 31.3586 -81.1214 180° South 436 502 34,000  Level Jacksonville Center
09:22AM 31.2503 -81.1233 181° South 436 502 34,000  Level Jacksonville Center
09:23AM 31.1292 -81.1233 180° South 436 502 34,000  Level Jacksonville Center
09:24AM 31.0100 -81.1206 179° South 436 502 34,000  Level Jacksonville Center
09:25AM 30.8869 -81.1206 180° South 441 507 34,000  Level Jacksonville Center
09:26AM 30.7700 -81.1181 179° South 441 507 34,000  Level Jacksonville Center
09:27AM 30.6489 -81.1203 181° South 441 507 34,000  Level Jacksonville Center
09:28AM 30.5275 -81.1103 176° South 441 507 34,000  Level Jacksonville Center
09:29AM 30.4081 -81.0814 168° South 441 507 34,000  Level Jacksonville Center
09:30AM 30.2803 -81.0500 168° South 441 507 34,000 -420 Level Jacksonville Center
09:31AM 30.1608 -81.0211 168° South 441 507 33,200 -1,620 Descending Jacksonville Center
09:32AM 30.0394 -80.9900 167° South 441 507 30,800 -2,400 Descending Jacksonville Center
09:33AM 29.9219 -80.9633 169° South 446 513 28,500 -2,280 Descending Jacksonville Center
09:34AM 29.8047 -80.9347 168° South 441 507 26,300 -2,220 Descending Jacksonville Center
09:35AM 29.6917 -80.9083 169° South 429 494 24,100 -2,220 Descending Jacksonville Center
09:36AM 29.5847 -80.8794 167° South 416 479 21,900 -2,100 Descending Jacksonville Center
09:37AM 29.4758 -80.8553 169° South 405 466 19,900 -2,040 Descending Jacksonville Center
09:38AM 29.3772 -80.8289 167° South 395 455 17,900 -1,980 Descending Jacksonville Center
09:39AM 29.2789 -80.8094 170° South 372 428 16,000 -1,920 Descending Jacksonville Center
09:40AM 29.1825 -80.7853 168° South 366 421 14,100 -1,860 Descending Jacksonville Center
09:41AM 29.0861 -80.7683 171° South 353 406 12,300 -1,140 Descending Jacksonville Center
09:42AM 29.0022 -80.7511 170° South 341 392 11,900 -300 Descending Jacksonville Center
09:43AM 28.9294 -80.7575 184° South 302 348 11,700 -900 Descending Jacksonville Center
09:44AM 28.8483 -80.7733 190° South 302 348 10,100 -1,740 Descending Jacksonville Center
09:45AM 28.7969 -80.8244 221° Southwest 262 302 8,300 -1,800 Descending Jacksonville Center
09:46AM 28.7775 -80.9100 255° West 249 287 6,600 -1,200 Descending Jacksonville Center
09:47AM 28.7556 -80.9908 253° West 255 293 5,900 -360 Descending Jacksonville Center
09:48AM 28.7358 -81.0669 254° West 260 299 5,900 -300 Level Jacksonville Center
09:49AM 28.7167 -81.1500 255° West 208 239 5,300 -900 Descending Orlando TRACON
09:50AM 28.7000 -81.2167 254° West 214 246 4,100 -600 Descending Orlando TRACON
09:51AM 28.6667 -81.2667 233° Southwest 217 250 4,100 -300 Level Orlando TRACON
09:52AM 28.6167 -81.2833 196° South 211 243 3,600 -600 Descending Orlando TRACON